West Salem, Wisconsin
Current Conditions -  °F | °C
As of 7:53 AM on Sunday 21 Dec 2014 (Local Time) from KLSE Reporting Station
Haze Haze  
Wind Chill: 27°   Ceiling: 700
Heat Index: 35°   Visibility: 5mi
Dew Point: 32°   Wind: 10mph
Humidity: 89%   Direction: 160°SSE
Pressure: 30.02"   Gusts: NA
Location:  43.9°N, 91.08°W
Report Text: KLSE 211353Z 16009KT 5SM BR OVC007 02/00 A3002 RMK AO2 SLP175 T00170000
Loading
Personal Weather Stations






























Interactive Weather Map New forecast layout! Learn more

10-Day Weather Forecast

Advertisements
Track Severe Weather on mobile